Sarco, Texas
Current Conditions -  °F | °C
As of 4:15 PM on Saturday 25 Oct 2014 (Local Time) from KBEA Reporting Station
Scattered Clouds Scattered Clouds  
Wind Chill: 89°   Ceiling: Unl
Heat Index: 89°   Visibility: 10mi
Dew Point: 55°   Wind: 8mph
Humidity: 31%   Direction: 100°E
Pressure: 30.08"   Gusts: NA
Location:  28.6563°N, 97.4287°W
Report Text: KBEA 252115Z AUTO 10007KT 10SM SCT065 32/13 A3008 RMK AO2 T03180128
Loading
Personal Weather Stations






























Interactive Weather Map
Tropical Storm Tracking
New forecast layout! Learn more

10-Day Weather Forecast

Advertisements
Track Severe Weather on mobile